sensor_id;sensor_type;location;lat;lon;timestamp;P1;durP1;ratioP1;P2;durP2;ratioP2
27201;SDS011;14717;46.924;15.474;2023-11-21T00:01:16;25.13;;;12.43;;
27201;SDS011;14717;46.924;15.474;2023-11-21T00:03:42;20.98;;;11.45;;
27201;SDS011;14717;46.924;15.474;2023-11-21T00:06:08;23.23;;;11.35;;
27201;SDS011;14717;46.924;15.474;2023-11-21T00:08:33;23.90;;;12.10;;
27201;SDS011;14717;46.924;15.474;2023-11-21T00:11:02;22.90;;;11.88;;
27201;SDS011;14717;46.924;15.474;2023-11-21T00:13:30;26.80;;;11.93;;
27201;SDS011;14717;46.924;15.474;2023-11-21T00:16:00;22.60;;;11.15;;
27201;SDS011;14717;46.924;15.474;2023-11-21T00:18:28;21.27;;;11.98;;
27201;SDS011;14717;46.924;15.474;2023-11-21T00:20:53;24.27;;;12.55;;
27201;SDS011;14717;46.924;15.474;2023-11-21T00:23:19;23.60;;;11.38;;
27201;SDS011;14717;46.924;15.474;2023-11-21T00:25:44;25.33;;;11.20;;
27201;SDS011;14717;46.924;15.474;2023-11-21T00:28:10;22.70;;;12.10;;
27201;SDS011;14717;46.924;15.474;2023-11-21T00:30:35;23.30;;;11.50;;
27201;SDS011;14717;46.924;15.474;2023-11-21T00:33:01;23.45;;;11.55;;
27201;SDS011;14717;46.924;15.474;2023-11-21T00:35:26;22.60;;;11.65;;
27201;SDS011;14717;46.924;15.474;2023-11-21T00:37:55;21.58;;;11.27;;
27201;SDS011;14717;46.924;15.474;2023-11-21T00:40:21;22.92;;;11.68;;
27201;SDS011;14717;46.924;15.474;2023-11-21T00:42:49;22.02;;;10.73;;
27201;SDS011;14717;46.924;15.474;2023-11-21T00:45:15;20.35;;;10.35;;
27201;SDS011;14717;46.924;15.474;2023-11-21T00:47:41;19.15;;;10.52;;
27201;SDS011;14717;46.924;15.474;2023-11-21T00:50:07;21.33;;;10.88;;
27201;SDS011;14717;46.924;15.474;2023-11-21T00:52:34;22.75;;;11.18;;
27201;SDS011;14717;46.924;15.474;2023-11-21T00:55:01;19.02;;;10.73;;
27201;SDS011;14717;46.924;15.474;2023-11-21T00:57:28;19.40;;;10.80;;
27201;SDS011;14717;46.924;15.474;2023-11-21T00:59:57;21.85;;;10.52;;
27201;SDS011;14717;46.924;15.474;2023-11-21T01:02:23;22.70;;;11.52;;
27201;SDS011;14717;46.924;15.474;2023-11-21T01:04:51;22.35;;;11.57;;
27201;SDS011;14717;46.924;15.474;2023-11-21T01:07:16;21.13;;;10.20;;
27201;SDS011;14717;46.924;15.474;2023-11-21T01:09:45;24.17;;;10.57;;
27201;SDS011;14717;46.924;15.474;2023-11-21T01:12:11;21.10;;;10.45;;
27201;SDS011;14717;46.924;15.474;2023-11-21T01:14:36;20.40;;;10.50;;
27201;SDS011;14717;46.924;15.474;2023-11-21T01:17:02;23.08;;;10.52;;
27201;SDS011;14717;46.924;15.474;2023-11-21T01:19:29;18.30;;;9.25;;
27201;SDS011;14717;46.924;15.474;2023-11-21T01:21:54;18.27;;;9.38;;
27201;SDS011;14717;46.924;15.474;2023-11-21T01:24:20;19.13;;;9.02;;
27201;SDS011;14717;46.924;15.474;2023-11-21T01:26:45;15.32;;;8.20;;
27201;SDS011;14717;46.924;15.474;2023-11-21T01:29:14;15.63;;;8.45;;
27201;SDS011;14717;46.924;15.474;2023-11-21T01:31:40;17.27;;;8.45;;
27201;SDS011;14717;46.924;15.474;2023-11-21T01:34:07;16.25;;;8.35;;
27201;SDS011;14717;46.924;15.474;2023-11-21T01:36:33;16.58;;;8.00;;
27201;SDS011;14717;46.924;15.474;2023-11-21T01:38:59;13.55;;;8.43;;
27201;SDS011;14717;46.924;15.474;2023-11-21T01:41:26;15.00;;;8.57;;
27201;SDS011;14717;46.924;15.474;2023-11-21T01:43:52;16.92;;;8.35;;
27201;SDS011;14717;46.924;15.474;2023-11-21T01:46:19;15.05;;;8.35;;
27201;SDS011;14717;46.924;15.474;2023-11-21T01:48:45;14.98;;;8.80;;
27201;SDS011;14717;46.924;15.474;2023-11-21T01:51:11;14.90;;;8.20;;
27201;SDS011;14717;46.924;15.474;2023-11-21T01:53:37;20.15;;;9.43;;
27201;SDS011;14717;46.924;15.474;2023-11-21T01:56:06;17.48;;;9.75;;
27201;SDS011;14717;46.924;15.474;2023-11-21T01:58:33;18.20;;;8.68;;
27201;SDS011;14717;46.924;15.474;2023-11-21T02:01:01;19.30;;;9.75;;
27201;SDS011;14717;46.924;15.474;2023-11-21T02:03:27;23.15;;;10.25;;
27201;SDS011;14717;46.924;15.474;2023-11-21T02:05:53;17.88;;;9.85;;
27201;SDS011;14717;46.924;15.474;2023-11-21T02:08:19;20.75;;;9.80;;
27201;SDS011;14717;46.924;15.474;2023-11-21T02:10:44;16.42;;;9.20;;
27201;SDS011;14717;46.924;15.474;2023-11-21T02:13:10;21.42;;;9.60;;
27201;SDS011;14717;46.924;15.474;2023-11-21T02:15:36;16.55;;;9.95;;
27201;SDS011;14717;46.924;15.474;2023-11-21T02:18:03;19.67;;;9.52;;
27201;SDS011;14717;46.924;15.474;2023-11-21T02:20:31;17.60;;;9.55;;
27201;SDS011;14717;46.924;15.474;2023-11-21T02:23:00;25.10;;;9.50;;
27201;SDS011;14717;46.924;15.474;2023-11-21T02:25:30;18.55;;;8.95;;
27201;SDS011;14717;46.924;15.474;2023-11-21T02:27:58;18.77;;;9.65;;
27201;SDS011;14717;46.924;15.474;2023-11-21T02:30:27;14.93;;;8.27;;
27201;SDS011;14717;46.924;15.474;2023-11-21T02:32:53;19.60;;;9.07;;
27201;SDS011;14717;46.924;15.474;2023-11-21T02:35:22;16.85;;;8.35;;
27201;SDS011;14717;46.924;15.474;2023-11-21T02:37:48;16.90;;;9.23;;
27201;SDS011;14717;46.924;15.474;2023-11-21T02:40:14;18.05;;;8.75;;
27201;SDS011;14717;46.924;15.474;2023-11-21T02:42:45;17.00;;;9.20;;
27201;SDS011;14717;46.924;15.474;2023-11-21T02:45:10;13.73;;;8.57;;
27201;SDS011;14717;46.924;15.474;2023-11-21T02:47:39;17.88;;;9.25;;
27201;SDS011;14717;46.924;15.474;2023-11-21T02:50:05;16.17;;;8.90;;
27201;SDS011;14717;46.924;15.474;2023-11-21T02:52:33;18.48;;;8.82;;
27201;SDS011;14717;46.924;15.474;2023-11-21T02:55:07;17.55;;;8.10;;
27201;SDS011;14717;46.924;15.474;2023-11-21T02:57:33;15.73;;;8.13;;
27201;SDS011;14717;46.924;15.474;2023-11-21T02:59:58;19.35;;;9.40;;
27201;SDS011;14717;46.924;15.474;2023-11-21T03:02:25;17.75;;;8.07;;
27201;SDS011;14717;46.924;15.474;2023-11-21T03:04:50;15.27;;;8.20;;
27201;SDS011;14717;46.924;15.474;2023-11-21T03:07:16;21.02;;;9.40;;
27201;SDS011;14717;46.924;15.474;2023-11-21T03:09:44;13.20;;;8.65;;
27201;SDS011;14717;46.924;15.474;2023-11-21T03:12:13;17.00;;;8.88;;
27201;SDS011;14717;46.924;15.474;2023-11-21T03:14:46;15.57;;;7.93;;
27201;SDS011;14717;46.924;15.474;2023-11-21T03:17:13;14.13;;;8.27;;
27201;SDS011;14717;46.924;15.474;2023-11-21T03:19:45;16.52;;;8.52;;
27201;SDS011;14717;46.924;15.474;2023-11-21T03:22:11;17.65;;;8.80;;
27201;SDS011;14717;46.924;15.474;2023-11-21T03:24:36;16.70;;;8.32;;
27201;SDS011;14717;46.924;15.474;2023-11-21T03:27:06;15.70;;;7.75;;
27201;SDS011;14717;46.924;15.474;2023-11-21T03:29:34;19.63;;;8.07;;
27201;SDS011;14717;46.924;15.474;2023-11-21T03:32:14;13.43;;;7.43;;
27201;SDS011;14717;46.924;15.474;2023-11-21T03:34:59;12.52;;;7.05;;
27201;SDS011;14717;46.924;15.474;2023-11-21T03:37:34;13.07;;;6.85;;
27201;SDS011;14717;46.924;15.474;2023-11-21T03:40:00;13.35;;;7.10;;
27201;SDS011;14717;46.924;15.474;2023-11-21T03:42:32;14.73;;;6.97;;
27201;SDS011;14717;46.924;15.474;2023-11-21T03:45:02;13.82;;;6.93;;
27201;SDS011;14717;46.924;15.474;2023-11-21T03:47:43;12.98;;;6.93;;
27201;SDS011;14717;46.924;15.474;2023-11-21T03:50:14;15.88;;;7.20;;
27201;SDS011;14717;46.924;15.474;2023-11-21T03:52:53;11.18;;;7.30;;
27201;SDS011;14717;46.924;15.474;2023-11-21T03:55:18;13.55;;;7.47;;
27201;SDS011;14717;46.924;15.474;2023-11-21T03:57:44;14.93;;;8.02;;
27201;SDS011;14717;46.924;15.474;2023-11-21T04:00:09;17.05;;;7.78;;
27201;SDS011;14717;46.924;15.474;2023-11-21T04:02:35;19.05;;;8.35;;
27201;SDS011;14717;46.924;15.474;2023-11-21T04:05:00;14.43;;;7.85;;
27201;SDS011;14717;46.924;15.474;2023-11-21T04:07:26;14.00;;;7.90;;
27201;SDS011;14717;46.924;15.474;2023-11-21T04:09:52;13.30;;;7.72;;
27201;SDS011;14717;46.924;15.474;2023-11-21T04:12:17;15.43;;;8.10;;
27201;SDS011;14717;46.924;15.474;2023-11-21T04:14:42;15.95;;;8.10;;
27201;SDS011;14717;46.924;15.474;2023-11-21T04:17:08;16.42;;;8.45;;
27201;SDS011;14717;46.924;15.474;2023-11-21T04:19:34;18.17;;;8.65;;
27201;SDS011;14717;46.924;15.474;2023-11-21T04:21:59;15.15;;;8.23;;
27201;SDS011;14717;46.924;15.474;2023-11-21T04:24:25;13.98;;;8.50;;
27201;SDS011;14717;46.924;15.474;2023-11-21T04:26:50;18.55;;;9.05;;
27201;SDS011;14717;46.924;15.474;2023-11-21T04:29:16;15.93;;;8.77;;
27201;SDS011;14717;46.924;15.474;2023-11-21T04:31:42;19.08;;;9.00;;
27201;SDS011;14717;46.924;15.474;2023-11-21T04:36:33;17.02;;;8.38;;
27201;SDS011;14717;46.924;15.474;2023-11-21T04:38:59;14.65;;;8.18;;
27201;SDS011;14717;46.924;15.474;2023-11-21T04:41:25;18.50;;;8.07;;
27201;SDS011;14717;46.924;15.474;2023-11-21T04:43:50;13.90;;;8.15;;
27201;SDS011;14717;46.924;15.474;2023-11-21T04:46:16;15.27;;;8.70;;
27201;SDS011;14717;46.924;15.474;2023-11-21T04:48:41;16.27;;;8.07;;
27201;SDS011;14717;46.924;15.474;2023-11-21T04:51:07;17.60;;;9.15;;
27201;SDS011;14717;46.924;15.474;2023-11-21T04:53:32;14.30;;;8.07;;
27201;SDS011;14717;46.924;15.474;2023-11-21T04:55:57;15.73;;;8.15;;
27201;SDS011;14717;46.924;15.474;2023-11-21T04:58:23;14.70;;;7.78;;
27201;SDS011;14717;46.924;15.474;2023-11-21T05:00:49;14.30;;;8.27;;
27201;SDS011;14717;46.924;15.474;2023-11-21T05:03:14;23.27;;;8.20;;
27201;SDS011;14717;46.924;15.474;2023-11-21T05:05:40;17.08;;;8.45;;
27201;SDS011;14717;46.924;15.474;2023-11-21T05:08:05;14.85;;;6.82;;
27201;SDS011;14717;46.924;15.474;2023-11-21T05:10:31;12.30;;;6.13;;
27201;SDS011;14717;46.924;15.474;2023-11-21T05:12:56;12.48;;;5.93;;
27201;SDS011;14717;46.924;15.474;2023-11-21T05:15:21;12.40;;;6.63;;
27201;SDS011;14717;46.924;15.474;2023-11-21T05:17:48;10.32;;;5.57;;
27201;SDS011;14717;46.924;15.474;2023-11-21T05:20:15;10.57;;;5.07;;
27201;SDS011;14717;46.924;15.474;2023-11-21T05:22:48;10.15;;;5.65;;
27201;SDS011;14717;46.924;15.474;2023-11-21T05:25:14;10.80;;;5.22;;
27201;SDS011;14717;46.924;15.474;2023-11-21T05:27:40;11.13;;;5.28;;
27201;SDS011;14717;46.924;15.474;2023-11-21T05:30:06;12.75;;;5.93;;
27201;SDS011;14717;46.924;15.474;2023-11-21T05:32:34;8.18;;;4.75;;
27201;SDS011;14717;46.924;15.474;2023-11-21T05:34:59;9.73;;;4.85;;
27201;SDS011;14717;46.924;15.474;2023-11-21T05:37:25;7.90;;;4.43;;
27201;SDS011;14717;46.924;15.474;2023-11-21T05:39:52;10.32;;;4.82;;
27201;SDS011;14717;46.924;15.474;2023-11-21T05:42:18;8.50;;;4.32;;
27201;SDS011;14717;46.924;15.474;2023-11-21T05:44:43;10.23;;;5.10;;
27201;SDS011;14717;46.924;15.474;2023-11-21T05:47:09;9.07;;;4.95;;
27201;SDS011;14717;46.924;15.474;2023-11-21T05:49:35;8.38;;;4.47;;
27201;SDS011;14717;46.924;15.474;2023-11-21T05:52:01;10.20;;;4.45;;
27201;SDS011;14717;46.924;15.474;2023-11-21T05:54:26;12.38;;;5.40;;
27201;SDS011;14717;46.924;15.474;2023-11-21T05:56:51;10.25;;;5.65;;
27201;SDS011;14717;46.924;15.474;2023-11-21T05:59:17;9.27;;;5.32;;
27201;SDS011;14717;46.924;15.474;2023-11-21T06:01:43;9.88;;;5.70;;
27201;SDS011;14717;46.924;15.474;2023-11-21T06:04:09;13.48;;;6.30;;
27201;SDS011;14717;46.924;15.474;2023-11-21T06:06:34;14.35;;;6.45;;
27201;SDS011;14717;46.924;15.474;2023-11-21T06:09:00;11.73;;;6.20;;
27201;SDS011;14717;46.924;15.474;2023-11-21T06:11:26;11.38;;;6.30;;
27201;SDS011;14717;46.924;15.474;2023-11-21T06:13:51;9.88;;;5.60;;
27201;SDS011;14717;46.924;15.474;2023-11-21T06:16:18;11.15;;;6.22;;
27201;SDS011;14717;46.924;15.474;2023-11-21T06:18:45;11.18;;;5.50;;
27201;SDS011;14717;46.924;15.474;2023-11-21T06:21:11;9.45;;;5.22;;
27201;SDS011;14717;46.924;15.474;2023-11-21T06:23:37;12.55;;;5.68;;
27201;SDS011;14717;46.924;15.474;2023-11-21T06:26:03;12.45;;;6.03;;
27201;SDS011;14717;46.924;15.474;2023-11-21T06:28:29;10.75;;;5.78;;
27201;SDS011;14717;46.924;15.474;2023-11-21T06:30:55;10.73;;;5.55;;
27201;SDS011;14717;46.924;15.474;2023-11-21T06:36:00;12.25;;;6.63;;
27201;SDS011;14717;46.924;15.474;2023-11-21T06:39:00;15.90;;;7.47;;
27201;SDS011;14717;46.924;15.474;2023-11-21T06:45:21;14.27;;;7.63;;
27201;SDS011;14717;46.924;15.474;2023-11-21T06:47:58;15.50;;;7.85;;
27201;SDS011;14717;46.924;15.474;2023-11-21T06:53:47;14.73;;;7.82;;
27201;SDS011;14717;46.924;15.474;2023-11-21T06:56:33;17.58;;;8.23;;
27201;SDS011;14717;46.924;15.474;2023-11-21T07:00:01;15.13;;;8.02;;
27201;SDS011;14717;46.924;15.474;2023-11-21T07:06:23;13.45;;;7.35;;
27201;SDS011;14717;46.924;15.474;2023-11-21T07:09:08;16.15;;;8.23;;
27201;SDS011;14717;46.924;15.474;2023-11-21T07:12:11;14.05;;;7.90;;
27201;SDS011;14717;46.924;15.474;2023-11-21T07:15:00;15.25;;;7.40;;
27201;SDS011;14717;46.924;15.474;2023-11-21T07:20:42;14.43;;;8.32;;
27201;SDS011;14717;46.924;15.474;2023-11-21T07:23:49;16.50;;;8.93;;
27201;SDS011;14717;46.924;15.474;2023-11-21T07:26:29;11.80;;;7.95;;
27201;SDS011;14717;46.924;15.474;2023-11-21T07:29:01;13.70;;;7.43;;
27201;SDS011;14717;46.924;15.474;2023-11-21T07:31:38;16.05;;;7.95;;
27201;SDS011;14717;46.924;15.474;2023-11-21T07:34:25;18.23;;;8.82;;
27201;SDS011;14717;46.924;15.474;2023-11-21T07:37:22;19.65;;;9.25;;
27201;SDS011;14717;46.924;15.474;2023-11-21T07:40:24;19.25;;;9.68;;
27201;SDS011;14717;46.924;15.474;2023-11-21T07:43:24;17.60;;;9.55;;
27201;SDS011;14717;46.924;15.474;2023-11-21T07:46:18;17.67;;;9.02;;
27201;SDS011;14717;46.924;15.474;2023-11-21T07:52:31;17.75;;;9.00;;
27201;SDS011;14717;46.924;15.474;2023-11-21T07:54:57;23.17;;;10.43;;
27201;SDS011;14717;46.924;15.474;2023-11-21T07:57:22;21.30;;;9.93;;
27201;SDS011;14717;46.924;15.474;2023-11-21T07:59:47;20.30;;;10.20;;
27201;SDS011;14717;46.924;15.474;2023-11-21T08:02:13;17.75;;;9.18;;
27201;SDS011;14717;46.924;15.474;2023-11-21T08:04:39;16.65;;;8.80;;
27201;SDS011;14717;46.924;15.474;2023-11-21T08:07:04;13.98;;;8.38;;
27201;SDS011;14717;46.924;15.474;2023-11-21T08:09:30;20.92;;;8.82;;
27201;SDS011;14717;46.924;15.474;2023-11-21T08:11:55;14.27;;;8.27;;
27201;SDS011;14717;46.924;15.474;2023-11-21T08:14:21;13.95;;;7.68;;
27201;SDS011;14717;46.924;15.474;2023-11-21T08:16:47;17.52;;;9.00;;
27201;SDS011;14717;46.924;15.474;2023-11-21T08:19:12;18.88;;;9.35;;
27201;SDS011;14717;46.924;15.474;2023-11-21T08:21:38;20.70;;;10.82;;
27201;SDS011;14717;46.924;15.474;2023-11-21T08:24:05;19.15;;;9.40;;
27201;SDS011;14717;46.924;15.474;2023-11-21T08:26:31;16.85;;;9.50;;
27201;SDS011;14717;46.924;15.474;2023-11-21T08:28:57;18.73;;;9.48;;
27201;SDS011;14717;46.924;15.474;2023-11-21T08:31:25;18.08;;;8.95;;
27201;SDS011;14717;46.924;15.474;2023-11-21T08:33:51;17.88;;;8.40;;
27201;SDS011;14717;46.924;15.474;2023-11-21T08:36:19;17.27;;;8.48;;
27201;SDS011;14717;46.924;15.474;2023-11-21T08:38:46;17.95;;;8.68;;
27201;SDS011;14717;46.924;15.474;2023-11-21T08:41:11;17.30;;;8.82;;
27201;SDS011;14717;46.924;15.474;2023-11-21T08:43:36;21.70;;;9.70;;
27201;SDS011;14717;46.924;15.474;2023-11-21T08:46:07;19.27;;;9.25;;
27201;SDS011;14717;46.924;15.474;2023-11-21T08:48:36;16.60;;;8.32;;
27201;SDS011;14717;46.924;15.474;2023-11-21T08:51:02;19.50;;;9.43;;
27201;SDS011;14717;46.924;15.474;2023-11-21T08:53:29;20.17;;;9.68;;
27201;SDS011;14717;46.924;15.474;2023-11-21T08:55:54;17.77;;;9.32;;
27201;SDS011;14717;46.924;15.474;2023-11-21T08:58:19;16.42;;;9.23;;
27201;SDS011;14717;46.924;15.474;2023-11-21T09:00:45;14.60;;;9.48;;
27201;SDS011;14717;46.924;15.474;2023-11-21T09:03:11;18.55;;;10.07;;
27201;SDS011;14717;46.924;15.474;2023-11-21T09:05:37;17.88;;;9.13;;
27201;SDS011;14717;46.924;15.474;2023-11-21T09:08:04;16.95;;;9.63;;
27201;SDS011;14717;46.924;15.474;2023-11-21T09:10:29;18.08;;;9.35;;
27201;SDS011;14717;46.924;15.474;2023-11-21T09:12:55;13.60;;;9.10;;
27201;SDS011;14717;46.924;15.474;2023-11-21T09:15:21;13.98;;;8.95;;
27201;SDS011;14717;46.924;15.474;2023-11-21T09:17:47;16.30;;;8.82;;
27201;SDS011;14717;46.924;15.474;2023-11-21T09:22:40;15.32;;;8.07;;
27201;SDS011;14717;46.924;15.474;2023-11-21T09:25:05;17.20;;;9.20;;
27201;SDS011;14717;46.924;15.474;2023-11-21T09:27:33;17.42;;;9.15;;
27201;SDS011;14717;46.924;15.474;2023-11-21T09:29:59;15.45;;;9.82;;
27201;SDS011;14717;46.924;15.474;2023-11-21T09:32:24;19.58;;;8.63;;
27201;SDS011;14717;46.924;15.474;2023-11-21T09:34:50;14.40;;;8.82;;
27201;SDS011;14717;46.924;15.474;2023-11-21T09:37:15;14.05;;;8.90;;
27201;SDS011;14717;46.924;15.474;2023-11-21T09:42:15;15.65;;;8.27;;
27201;SDS011;14717;46.924;15.474;2023-11-21T09:47:40;19.20;;;8.90;;
27201;SDS011;14717;46.924;15.474;2023-11-21T09:50:08;15.90;;;7.95;;
27201;SDS011;14717;46.924;15.474;2023-11-21T09:55:36;16.50;;;7.97;;
27201;SDS011;14717;46.924;15.474;2023-11-21T09:58:04;12.75;;;7.75;;
27201;SDS011;14717;46.924;15.474;2023-11-21T10:00:32;15.30;;;8.20;;
27201;SDS011;14717;46.924;15.474;2023-11-21T10:02:58;13.80;;;9.18;;
27201;SDS011;14717;46.924;15.474;2023-11-21T10:05:24;14.95;;;8.30;;
27201;SDS011;14717;46.924;15.474;2023-11-21T10:07:50;17.80;;;8.15;;
27201;SDS011;14717;46.924;15.474;2023-11-21T10:10:17;15.55;;;7.53;;
27201;SDS011;14717;46.924;15.474;2023-11-21T10:12:54;13.73;;;7.85;;
27201;SDS011;14717;46.924;15.474;2023-11-21T10:15:22;20.52;;;8.30;;
27201;SDS011;14717;46.924;15.474;2023-11-21T10:17:50;13.88;;;7.13;;
27201;SDS011;14717;46.924;15.474;2023-11-21T10:20:18;13.60;;;7.90;;
27201;SDS011;14717;46.924;15.474;2023-11-21T10:22:44;15.65;;;8.23;;
27201;SDS011;14717;46.924;15.474;2023-11-21T10:25:11;16.73;;;8.07;;
27201;SDS011;14717;46.924;15.474;2023-11-21T10:27:39;16.15;;;7.43;;
27201;SDS011;14717;46.924;15.474;2023-11-21T10:30:06;14.75;;;8.52;;
27201;SDS011;14717;46.924;15.474;2023-11-21T10:32:33;14.82;;;8.50;;
27201;SDS011;14717;46.924;15.474;2023-11-21T10:34:59;16.00;;;8.07;;
27201;SDS011;14717;46.924;15.474;2023-11-21T10:37:34;16.25;;;8.02;;
27201;SDS011;14717;46.924;15.474;2023-11-21T10:40:00;13.20;;;7.60;;
27201;SDS011;14717;46.924;15.474;2023-11-21T10:42:26;14.75;;;8.05;;
27201;SDS011;14717;46.924;15.474;2023-11-21T10:44:54;21.65;;;8.60;;
27201;SDS011;14717;46.924;15.474;2023-11-21T10:47:20;17.80;;;9.15;;
27201;SDS011;14717;46.924;15.474;2023-11-21T10:49:48;25.67;;;9.95;;
27201;SDS011;14717;46.924;15.474;2023-11-21T10:52:14;15.45;;;9.23;;
27201;SDS011;14717;46.924;15.474;2023-11-21T10:54:42;17.65;;;9.27;;
27201;SDS011;14717;46.924;15.474;2023-11-21T10:57:08;16.52;;;9.50;;
27201;SDS011;14717;46.924;15.474;2023-11-21T10:59:35;20.85;;;9.77;;
27201;SDS011;14717;46.924;15.474;2023-11-21T11:02:16;20.33;;;9.57;;
27201;SDS011;14717;46.924;15.474;2023-11-21T11:04:50;30.45;;;13.57;;
27201;SDS011;14717;46.924;15.474;2023-11-21T11:07:17;28.55;;;12.10;;
27201;SDS011;14717;46.924;15.474;2023-11-21T11:09:44;24.25;;;11.25;;
27201;SDS011;14717;46.924;15.474;2023-11-21T11:14:36;18.52;;;10.10;;
27201;SDS011;14717;46.924;15.474;2023-11-21T11:17:06;22.50;;;10.02;;
27201;SDS011;14717;46.924;15.474;2023-11-21T11:19:34;17.23;;;9.20;;
27201;SDS011;14717;46.924;15.474;2023-11-21T11:27:37;16.05;;;8.57;;
27201;SDS011;14717;46.924;15.474;2023-11-21T11:30:16;15.55;;;7.82;;
27201;SDS011;14717;46.924;15.474;2023-11-21T11:35:33;16.88;;;7.72;;
27201;SDS011;14717;46.924;15.474;2023-11-21T11:38:03;18.80;;;8.75;;
27201;SDS011;14717;46.924;15.474;2023-11-21T11:40:38;18.95;;;7.65;;
27201;SDS011;14717;46.924;15.474;2023-11-21T11:43:09;16.45;;;8.70;;
27201;SDS011;14717;46.924;15.474;2023-11-21T11:45:35;22.75;;;9.65;;
27201;SDS011;14717;46.924;15.474;2023-11-21T11:48:01;19.17;;;9.48;;
27201;SDS011;14717;46.924;15.474;2023-11-21T11:50:28;20.52;;;10.07;;
27201;SDS011;14717;46.924;15.474;2023-11-21T11:52:54;20.95;;;9.45;;
27201;SDS011;14717;46.924;15.474;2023-11-21T11:55:22;17.17;;;9.45;;
27201;SDS011;14717;46.924;15.474;2023-11-21T11:57:52;21.95;;;11.55;;
27201;SDS011;14717;46.924;15.474;2023-11-21T12:02:52;14.27;;;7.20;;
27201;SDS011;14717;46.924;15.474;2023-11-21T12:05:19;13.23;;;7.15;;
27201;SDS011;14717;46.924;15.474;2023-11-21T12:07:52;15.88;;;7.20;;
27201;SDS011;14717;46.924;15.474;2023-11-21T12:10:20;12.35;;;7.78;;
27201;SDS011;14717;46.924;15.474;2023-11-21T12:12:50;14.90;;;7.43;;
27201;SDS011;14717;46.924;15.474;2023-11-21T12:15:26;15.13;;;7.07;;
27201;SDS011;14717;46.924;15.474;2023-11-21T12:17:54;13.43;;;6.53;;
27201;SDS011;14717;46.924;15.474;2023-11-21T12:20:20;13.00;;;6.28;;
27201;SDS011;14717;46.924;15.474;2023-11-21T12:22:47;11.30;;;6.38;;
27201;SDS011;14717;46.924;15.474;2023-11-21T12:25:14;12.55;;;6.30;;
27201;SDS011;14717;46.924;15.474;2023-11-21T12:27:47;11.13;;;6.10;;
27201;SDS011;14717;46.924;15.474;2023-11-21T12:30:17;9.88;;;6.03;;
27201;SDS011;14717;46.924;15.474;2023-11-21T12:32:44;12.52;;;6.05;;
27201;SDS011;14717;46.924;15.474;2023-11-21T14:06:06;12.85;;;7.30;;
27201;SDS011;14717;46.924;15.474;2023-11-21T14:09:05;12.95;;;7.07;;
27201;SDS011;14717;46.924;15.474;2023-11-21T14:11:57;11.48;;;7.45;;
27201;SDS011;14717;46.924;15.474;2023-11-21T14:17:53;10.10;;;6.95;;
27201;SDS011;14717;46.924;15.474;2023-11-21T14:20:30;11.73;;;7.03;;
27201;SDS011;14717;46.924;15.474;2023-11-21T14:23:33;12.57;;;6.88;;
27201;SDS011;14717;46.924;15.474;2023-11-21T14:29:23;10.43;;;6.75;;
27201;SDS011;14717;46.924;15.474;2023-11-21T14:32:03;11.20;;;6.47;;
27201;SDS011;14717;46.924;15.474;2023-11-21T14:34:53;10.48;;;6.40;;
27201;SDS011;14717;46.924;15.474;2023-11-21T14:46:43;10.48;;;6.90;;
27201;SDS011;14717;46.924;15.474;2023-11-21T14:49:27;11.93;;;6.35;;
27201;SDS011;14717;46.924;15.474;2023-11-21T14:52:31;13.52;;;7.35;;
27201;SDS011;14717;46.924;15.474;2023-11-21T14:58:31;13.73;;;7.20;;
27201;SDS011;14717;46.924;15.474;2023-11-21T15:01:31;21.60;;;10.75;;
27201;SDS011;14717;46.924;15.474;2023-11-21T15:04:34;17.50;;;10.73;;
27201;SDS011;14717;46.924;15.474;2023-11-21T15:07:27;12.38;;;7.13;;
27201;SDS011;14717;46.924;15.474;2023-11-21T15:10:13;32.65;;;13.52;;
27201;SDS011;14717;46.924;15.474;2023-11-21T15:13:19;81.75;;;35.30;;
27201;SDS011;14717;46.924;15.474;2023-11-21T15:16:19;58.03;;;25.25;;
27201;SDS011;14717;46.924;15.474;2023-11-21T15:22:46;17.45;;;8.88;;
27201;SDS011;14717;46.924;15.474;2023-11-21T15:25:25;22.13;;;11.38;;
27201;SDS011;14717;46.924;15.474;2023-11-21T15:31:11;19.20;;;10.70;;
27201;SDS011;14717;46.924;15.474;2023-11-21T15:34:08;18.25;;;9.27;;
27201;SDS011;14717;46.924;15.474;2023-11-21T15:36:58;17.65;;;9.05;;
27201;SDS011;14717;46.924;15.474;2023-11-21T15:39:35;14.20;;;8.35;;
27201;SDS011;14717;46.924;15.474;2023-11-21T15:42:25;17.35;;;8.70;;
27201;SDS011;14717;46.924;15.474;2023-11-21T15:45:13;19.70;;;10.85;;
27201;SDS011;14717;46.924;15.474;2023-11-21T15:47:53;19.45;;;10.95;;
27201;SDS011;14717;46.924;15.474;2023-11-21T15:50:34;18.15;;;10.35;;
27201;SDS011;14717;46.924;15.474;2023-11-21T15:53:06;19.02;;;10.65;;
27201;SDS011;14717;46.924;15.474;2023-11-21T15:55:35;18.27;;;10.10;;
27201;SDS011;14717;46.924;15.474;2023-11-21T16:01:49;17.50;;;9.40;;
27201;SDS011;14717;46.924;15.474;2023-11-21T16:04:26;19.17;;;10.02;;
27201;SDS011;14717;46.924;15.474;2023-11-21T16:10:07;16.42;;;9.95;;
27201;SDS011;14717;46.924;15.474;2023-11-21T16:12:56;19.48;;;9.93;;
27201;SDS011;14717;46.924;15.474;2023-11-21T16:15:22;15.20;;;9.18;;
27201;SDS011;14717;46.924;15.474;2023-11-21T16:17:48;16.73;;;9.55;;
27201;SDS011;14717;46.924;15.474;2023-11-21T16:20:24;19.67;;;10.88;;
27201;SDS011;14717;46.924;15.474;2023-11-21T16:22:59;20.63;;;10.63;;
27201;SDS011;14717;46.924;15.474;2023-11-21T16:25:38;19.98;;;10.57;;
27201;SDS011;14717;46.924;15.474;2023-11-21T16:28:04;19.55;;;11.32;;
27201;SDS011;14717;46.924;15.474;2023-11-21T16:30:32;19.63;;;11.15;;
27201;SDS011;14717;46.924;15.474;2023-11-21T16:33:03;18.20;;;10.85;;
27201;SDS011;14717;46.924;15.474;2023-11-21T16:35:31;21.58;;;11.43;;
27201;SDS011;14717;46.924;15.474;2023-11-21T16:37:57;16.48;;;9.88;;
27201;SDS011;14717;46.924;15.474;2023-11-21T16:40:22;16.88;;;10.75;;
27201;SDS011;14717;46.924;15.474;2023-11-21T16:42:51;19.75;;;12.57;;
27201;SDS011;14717;46.924;15.474;2023-11-21T16:45:18;19.73;;;12.73;;
27201;SDS011;14717;46.924;15.474;2023-11-21T16:50:32;20.23;;;11.77;;
27201;SDS011;14717;46.924;15.474;2023-11-21T16:52:58;22.27;;;11.32;;
27201;SDS011;14717;46.924;15.474;2023-11-21T16:55:32;18.67;;;10.43;;
27201;SDS011;14717;46.924;15.474;2023-11-21T16:57:57;21.35;;;11.95;;
27201;SDS011;14717;46.924;15.474;2023-11-21T17:00:24;24.48;;;12.38;;
27201;SDS011;14717;46.924;15.474;2023-11-21T17:02:49;20.60;;;12.13;;
27201;SDS011;14717;46.924;15.474;2023-11-21T17:05:15;20.85;;;12.85;;
27201;SDS011;14717;46.924;15.474;2023-11-21T17:07:40;31.35;;;16.90;;
27201;SDS011;14717;46.924;15.474;2023-11-21T17:10:06;37.30;;;19.95;;
27201;SDS011;14717;46.924;15.474;2023-11-21T17:12:34;28.85;;;15.15;;
27201;SDS011;14717;46.924;15.474;2023-11-21T17:14:59;33.55;;;16.63;;
27201;SDS011;14717;46.924;15.474;2023-11-21T17:17:25;33.20;;;17.20;;
27201;SDS011;14717;46.924;15.474;2023-11-21T17:19:56;40.78;;;19.75;;
27201;SDS011;14717;46.924;15.474;2023-11-21T17:22:22;30.80;;;17.38;;
27201;SDS011;14717;46.924;15.474;2023-11-21T17:24:54;76.90;;;17.55;;
27201;SDS011;14717;46.924;15.474;2023-11-21T17:27:22;30.13;;;12.55;;
27201;SDS011;14717;46.924;15.474;2023-11-21T17:29:48;22.15;;;12.63;;